Seboeis Plt, Maine
Current Conditions -  °F | °C
As of 3:53 PM on Saturday 20 Dec 2014 (Local Time) from KBGR Reporting Station
Overcast Overcast  
Wind Chill: -10°   Ceiling: 1400
Heat Index: -5°   Visibility: 10mi
Dew Point: -8°   Wind: 8mph
Humidity: 81%   Direction: 360°N
Pressure: 30.34"   Gusts: NA
Location:  45.1976°N, 68.703°W
Report Text: KBGR 202053Z 36007KT 10SM OVC014 M05/M08 A3034 RMK AO2 SLP279 T10501078 53003
Loading
Personal Weather Stations






























Interactive Weather Map New forecast layout! Learn more

10-Day Weather Forecast

Advertisements
Track Severe Weather on mobile